Time;durP1;ratioP1;P1;durP2;ratioP2;P2;SDS_P1;SDS_P2;PMS_P1;PMS_P2;Temp;Humidity;BMP_temperature;BMP_pressure;BME280_temperature;BME280_humidity;BME280_pressure;Samples;Min_cycle;Max_cycle;Signal;HPM_P1;HPM_P2
2021/03/10 00:00:32;;;;;;;;;;;12.80;60.60;;;;;;2081861;28;701;-55
2021/03/10 00:01:51;;;;;;;;;;;12.80;61.40;;;;;;2081736;28;735;-53
2021/03/10 00:03:10;;;;;;;;;;;12.80;61.40;;;;;;2081967;28;737;-51
2021/03/10 00:04:31;;;;;;;;;;;12.80;61.50;;;;;;2081800;28;721;-52
2021/03/10 00:05:50;;;;;;;;;;;12.80;60.80;;;;;;2081278;28;835;-51
2021/03/10 00:07:09;;;;;;;;;;;12.80;60.80;;;;;;2094096;28;1963;-53
2021/03/10 00:08:29;;;;;;;;;;;12.70;60.60;;;;;;2097607;28;802;-50
2021/03/10 00:09:48;;;;;;;;;;;12.70;60.70;;;;;;2098226;28;788;-55
2021/03/10 00:11:07;;;;;;;;;;;12.70;60.70;;;;;;2098318;28;708;-53
2021/03/10 00:12:26;;;;;;;;;;;12.70;60.70;;;;;;2097636;28;792;-53
2021/03/10 00:13:46;;;;;;;;;;;12.70;60.80;;;;;;2086093;28;807;-53
2021/03/10 00:15:06;;;;;;;;;;;12.70;60.90;;;;;;2090512;28;1354;-52
2021/03/10 00:16:25;;;;;;;;;;;12.70;60.90;;;;;;2094384;28;761;-54
2021/03/10 00:17:44;;;;;;;;;;;12.70;60.90;;;;;;2097951;28;725;-56
2021/03/10 00:19:03;;;;;;;;;;;12.70;61.70;;;;;;2098042;28;739;-51
2021/03/10 00:20:22;;;;;;;;;;;12.70;61.00;;;;;;2096152;28;1116;-55
2021/03/10 00:21:41;;;;;;;;;;;12.70;61.00;;;;;;2083812;28;1782;-51
2021/03/10 00:23:01;;;;;;;;;;;12.70;60.90;;;;;;2093805;28;1149;-50
2021/03/10 00:24:20;;;;;;;;;;;12.70;60.90;;;;;;2087406;28;1272;-52
2021/03/10 00:25:39;;;;;;;;;;;12.70;60.90;;;;;;2089120;28;1344;-51
2021/03/10 00:26:58;;;;;;;;;;;12.70;60.90;;;;;;2089540;28;1898;-54
2021/03/10 00:28:17;;;;;;;;;;;12.70;61.00;;;;;;2090082;28;752;-51
2021/03/10 00:29:37;;;;;;;;;;;12.60;60.90;;;;;;2089652;28;764;-51
2021/03/10 00:30:56;;;;;;;;;;;12.60;60.90;;;;;;2089868;28;705;-55
2021/03/10 00:32:15;;;;;;;;;;;12.60;60.90;;;;;;2089492;28;738;-49
2021/03/10 00:33:35;;;;;;;;;;;12.60;61.00;;;;;;2085851;28;725;-52
2021/03/10 00:34:54;;;;;;;;;;;12.60;61.00;;;;;;2088787;28;1469;-50
2021/03/10 00:36:13;;;;;;;;;;;12.60;61.00;;;;;;2089425;28;728;-50
2021/03/10 00:37:32;;;;;;;;;;;12.60;61.80;;;;;;2088383;28;710;-49
2021/03/10 00:38:51;;;;;;;;;;;12.60;61.80;;;;;;2089850;28;727;-50
2021/03/10 00:40:10;;;;;;;;;;;12.60;61.80;;;;;;2089230;28;725;-51
2021/03/10 00:41:30;;;;;;;;;;;12.60;61.10;;;;;;2089175;28;730;-52
2021/03/10 00:42:49;;;;;;;;;;;12.60;61.10;;;;;;2089774;28;754;-51
2021/03/10 00:44:08;;;;;;;;;;;12.60;61.10;;;;;;2089822;28;728;-51
2021/03/10 00:45:27;;;;;;;;;;;12.60;61.10;;;;;;2089009;28;1462;-50
2021/03/10 00:46:47;;;;;;;;;;;12.60;61.20;;;;;;2089207;28;1934;-54
2021/03/10 00:48:06;;;;;;;;;;;12.60;61.20;;;;;;2096312;28;1009;-49
2021/03/10 00:49:25;;;;;;;;;;;12.60;61.10;;;;;;2097916;28;723;-51
2021/03/10 00:50:44;;;;;;;;;;;12.50;61.10;;;;;;2097899;28;704;-52
2021/03/10 00:52:04;;;;;;;;;;;12.50;61.10;;;;;;2094361;28;1023;-54
2021/03/10 00:53:23;;;;;;;;;;;12.50;61.10;;;;;;2096493;28;1039;-54
2021/03/10 00:54:42;;;;;;;;;;;12.50;61.10;;;;;;2088200;28;1084;-52
2021/03/10 00:56:01;;;;;;;;;;;12.50;61.10;;;;;;2097361;28;709;-53
2021/03/10 00:57:20;;;;;;;;;;;12.50;61.20;;;;;;2094191;28;835;-53
2021/03/10 00:58:39;;;;;;;;;;;12.50;61.90;;;;;;2097716;28;725;-51
2021/03/10 00:59:58;;;;;;;;;;;12.50;61.90;;;;;;2097942;28;744;-54
2021/03/10 01:01:17;;;;;;;;;;;12.50;61.30;;;;;;2097974;28;734;-52
2021/03/10 01:02:37;;;;;;;;;;;12.50;61.30;;;;;;2097785;28;730;-55
2021/03/10 01:03:56;;;;;;;;;;;12.50;61.30;;;;;;2097774;28;876;-52
2021/03/10 01:05:15;;;;;;;;;;;12.50;61.30;;;;;;2096712;28;1435;-57
2021/03/10 01:06:34;;;;;;;;;;;12.50;61.40;;;;;;2097562;28;1906;-51
2021/03/10 01:07:53;;;;;;;;;;;12.50;61.30;;;;;;2097806;28;712;-54
2021/03/10 01:09:13;;;;;;;;;;;12.50;61.30;;;;;;2097669;28;731;-55
2021/03/10 01:10:32;;;;;;;;;;;12.50;61.30;;;;;;2097782;28;779;-52
2021/03/10 01:11:51;;;;;;;;;;;12.50;61.30;;;;;;2097966;28;713;-52
2021/03/10 01:13:10;;;;;;;;;;;12.40;61.20;;;;;;2098535;28;731;-54
2021/03/10 01:14:30;;;;;;;;;;;12.40;61.20;;;;;;2097726;28;790;-50
2021/03/10 01:15:49;;;;;;;;;;;12.40;62.00;;;;;;2097569;28;1374;-51
2021/03/10 01:17:08;;;;;;;;;;;12.40;62.00;;;;;;2097862;28;764;-54
2021/03/10 01:18:27;;;;;;;;;;;12.40;61.30;;;;;;2097236;28;813;-55
2021/03/10 01:19:46;;;;;;;;;;;12.40;61.30;;;;;;2097800;28;717;-52
2021/03/10 01:21:06;;;;;;;;;;;12.40;61.20;;;;;;2096632;28;804;-55
2021/03/10 01:22:25;;;;;;;;;;;12.40;61.30;;;;;;2087555;28;936;-52
2021/03/10 01:23:44;;;;;;;;;;;12.40;61.30;;;;;;2085205;28;893;-52
2021/03/10 01:25:04;;;;;;;;;;;12.40;61.30;;;;;;2092137;28;1404;-51
2021/03/10 01:26:23;;;;;;;;;;;12.40;61.40;;;;;;2089407;28;1973;-52
2021/03/10 01:27:43;;;;;;;;;;;12.40;61.40;;;;;;2080709;28;757;-50
2021/03/10 01:29:02;;;;;;;;;;;12.40;61.50;;;;;;2082905;28;739;-49
2021/03/10 01:30:22;;;;;;;;;;;12.40;61.50;;;;;;2089441;28;788;-51
2021/03/10 01:31:41;;;;;;;;;;;12.40;61.50;;;;;;2089562;28;698;-51
2021/03/10 01:33:00;;;;;;;;;;;12.40;61.40;;;;;;2089101;28;758;-52
2021/03/10 01:34:19;;;;;;;;;;;12.40;62.20;;;;;;2085948;28;733;-53
2021/03/10 01:35:38;;;;;;;;;;;12.40;62.20;;;;;;2088457;28;1443;-51
2021/03/10 01:36:57;;;;;;;;;;;12.40;61.50;;;;;;2088548;28;716;-51
2021/03/10 01:38:17;;;;;;;;;;;12.40;61.50;;;;;;2089565;28;722;-51
2021/03/10 01:39:36;;;;;;;;;;;12.30;61.40;;;;;;2089496;28;751;-52
2021/03/10 01:40:55;;;;;;;;;;;12.30;61.30;;;;;;2089557;28;780;-53
2021/03/10 01:42:14;;;;;;;;;;;12.30;61.40;;;;;;2089667;28;736;-49
2021/03/10 01:43:33;;;;;;;;;;;12.30;61.40;;;;;;2089239;28;735;-51
2021/03/10 01:44:53;;;;;;;;;;;12.30;62.10;;;;;;2089062;28;1415;-50
2021/03/10 01:46:12;;;;;;;;;;;12.30;61.40;;;;;;2089276;28;756;-52
2021/03/10 01:47:32;;;;;;;;;;;12.30;61.40;;;;;;2089484;28;767;-49
2021/03/10 01:48:51;;;;;;;;;;;12.30;61.40;;;;;;2089601;28;723;-51
2021/03/10 01:50:11;;;;;;;;;;;12.30;61.40;;;;;;2088768;28;1037;-51
2021/03/10 01:51:30;;;;;;;;;;;12.30;62.30;;;;;;2088950;28;842;-53
2021/03/10 01:52:49;;;;;;;;;;;12.30;62.20;;;;;;2086259;28;1095;-51
2021/03/10 01:54:08;;;;;;;;;;;12.30;61.50;;;;;;2092076;28;1011;-52
2021/03/10 01:55:27;;;;;;;;;;;12.30;61.40;;;;;;2095878;28;1405;-48
2021/03/10 01:56:47;;;;;;;;;;;12.30;61.40;;;;;;2097647;28;763;-51
2021/03/10 01:58:06;;;;;;;;;;;12.30;61.40;;;;;;2097598;28;732;-54
2021/03/10 01:59:25;;;;;;;;;;;12.30;61.40;;;;;;2098320;28;708;-56
2021/03/10 02:00:44;;;;;;;;;;;12.30;61.50;;;;;;2098774;28;716;-54
2021/03/10 02:02:03;;;;;;;;;;;12.30;61.50;;;;;;2095646;28;742;-50
2021/03/10 02:03:23;;;;;;;;;;;12.30;61.50;;;;;;2098755;28;695;-53
2021/03/10 02:04:42;;;;;;;;;;;12.20;61.40;;;;;;2099642;28;687;-52
2021/03/10 02:06:01;;;;;;;;;;;12.20;61.40;;;;;;2095612;28;1264;-51
2021/03/10 02:07:24;;;;;;;;;;;12.20;61.40;;;;;;2099125;28;1906;-50
2021/03/10 02:08:53;;;;;;;;;;;12.20;61.40;;;;;;2098536;28;712;-52
2021/03/10 02:10:16;;;;;;;;;;;12.20;61.40;;;;;;2096453;28;736;-50
2021/03/10 02:11:43;;;;;;;;;;;12.20;61.40;;;;;;2095861;28;772;-50
2021/03/10 02:13:12;;;;;;;;;;;12.20;61.40;;;;;;2096596;28;788;-51
2021/03/10 02:14:52;;;;;;;;;;;12.20;61.50;;;;;;2099142;28;830;-49
2021/03/10 02:16:11;;;;;;;;;;;12.20;61.40;;;;;;2088121;28;1246;-50
2021/03/10 02:17:32;;;;;;;;;;;12.20;61.50;;;;;;2098706;28;1238;-50
2021/03/10 02:19:01;;;;;;;;;;;12.20;61.50;;;;;;2087081;28;1272;-51
2021/03/10 02:20:25;;;;;;;;;;;12.20;62.20;;;;;;2093839;28;1158;-48
2021/03/10 02:21:49;;;;;;;;;;;12.20;61.50;;;;;;2093708;28;1214;-48
2021/03/10 02:23:20;;;;;;;;;;;12.20;61.50;;;;;;2086636;28;1146;-49
2021/03/10 02:24:43;;;;;;;;;;;12.20;61.40;;;;;;2096451;28;1370;-49
2021/03/10 02:26:05;;;;;;;;;;;12.20;61.50;;;;;;2092289;28;1272;-49
2021/03/10 02:27:43;;;;;;;;;;;12.20;61.50;;;;;;2091548;28;1194;-48
2021/03/10 02:29:03;;;;;;;;;;;12.20;61.50;;;;;;2095720;28;1202;-48
2021/03/10 02:30:23;;;;;;;;;;;12.10;61.50;;;;;;2094731;28;1380;-48
2021/03/10 02:31:47;;;;;;;;;;;12.10;61.40;;;;;;2094462;28;1406;-50
2021/03/10 02:33:06;;;;;;;;;;;12.10;61.50;;;;;;2090124;28;1339;-51
2021/03/10 02:34:26;;;;;;;;;;;12.10;61.40;;;;;;2091873;28;1155;-50
2021/03/10 02:35:47;;;;;;;;;;;12.10;61.40;;;;;;2095300;28;1448;-51
2021/03/10 02:37:06;;;;;;;;;;;12.10;61.40;;;;;;2091795;28;1486;-48
2021/03/10 02:38:25;;;;;;;;;;;12.10;61.40;;;;;;2091831;28;1163;-48
2021/03/10 02:39:44;;;;;;;;;;;12.10;61.40;;;;;;2089868;28;1438;-49
2021/03/10 02:41:04;;;;;;;;;;;12.10;61.40;;;;;;2091754;28;1346;-48
2021/03/10 02:42:23;;;;;;;;;;;12.10;61.40;;;;;;2090335;28;1259;-49
2021/03/10 02:43:43;;;;;;;;;;;12.10;61.20;;;;;;2089119;28;1169;-50
2021/03/10 02:45:02;;;;;;;;;;;12.10;61.20;;;;;;2092051;28;1404;-49
2021/03/10 02:46:22;;;;;;;;;;;12.10;61.30;;;;;;2089002;28;1119;-49
2021/03/10 02:47:41;;;;;;;;;;;12.10;61.20;;;;;;2090868;28;1259;-48
2021/03/10 02:49:00;;;;;;;;;;;12.10;61.20;;;;;;2092018;28;1342;-48
2021/03/10 02:50:19;;;;;;;;;;;12.10;61.20;;;;;;2084657;28;1119;-49
2021/03/10 02:51:38;;;;;;;;;;;12.20;61.10;;;;;;2085630;28;1253;-48
2021/03/10 02:52:57;;;;;;;;;;;12.20;61.70;;;;;;2088204;28;1220;-49
2021/03/10 02:54:16;;;;;;;;;;;12.30;61.50;;;;;;2089710;28;1225;-48
2021/03/10 02:55:37;;;;;;;;;;;12.30;60.40;;;;;;2089787;28;1401;-48
2021/03/10 02:56:56;;;;;;;;;;;12.40;60.20;;;;;;2090555;28;1233;-48
2021/03/10 02:58:16;;;;;;;;;;;12.50;59.90;;;;;;2089763;28;1139;-50
2021/03/10 02:59:35;;;;;;;;;;;12.50;59.60;;;;;;2087377;28;1252;-49
2021/03/10 03:00:54;;;;;;;;;;;12.60;59.40;;;;;;2089981;28;948;-50
2021/03/10 03:02:14;;;;;;;;;;;12.60;59.20;;;;;;2080650;28;1118;-49
2021/03/10 03:03:33;;;;;;;;;;;12.70;59.00;;;;;;2080731;28;1429;-50
2021/03/10 03:04:52;;;;;;;;;;;12.70;58.80;;;;;;2083016;28;1288;-50
2021/03/10 03:06:11;;;;;;;;;;;12.80;58.60;;;;;;2095066;28;884;-49
2021/03/10 03:07:30;;;;;;;;;;;12.80;58.40;;;;;;2071630;28;1097;-50
2021/03/10 03:08:50;;;;;;;;;;;12.70;58.20;;;;;;2093298;28;1155;-50
2021/03/10 03:10:10;;;;;;;;;;;12.80;58.70;;;;;;2097747;28;911;-51
2021/03/10 03:11:29;;;;;;;;;;;12.80;58.60;;;;;;2089098;28;1045;-50
2021/03/10 03:12:49;;;;;;;;;;;12.90;58.10;;;;;;2078584;28;956;-50
2021/03/10 03:14:08;;;;;;;;;;;12.90;58.00;;;;;;2094923;28;1049;-48
2021/03/10 03:15:28;;;;;;;;;;;12.90;58.00;;;;;;2097738;28;1415;-49
2021/03/10 03:16:47;;;;;;;;;;;12.90;58.00;;;;;;2097899;28;1270;-47
2021/03/10 03:18:06;;;;;;;;;;;12.90;58.00;;;;;;2097765;28;1040;-50
2021/03/10 03:19:26;;;;;;;;;;;12.90;58.00;;;;;;2098285;28;1284;-49
2021/03/10 03:20:45;;;;;;;;;;;12.80;58.00;;;;;;2093539;28;1259;-50
2021/03/10 03:22:04;;;;;;;;;;;12.80;58.00;;;;;;2090987;28;1160;-50
2021/03/10 03:23:24;;;;;;;;;;;12.80;58.10;;;;;;2098109;28;1371;-49
2021/03/10 03:24:43;;;;;;;;;;;12.80;58.10;;;;;;2093025;28;940;-50
2021/03/10 03:26:02;;;;;;;;;;;12.80;58.70;;;;;;2097692;28;933;-50
2021/03/10 03:27:28;;;;;;;;;;;12.80;58.10;;;;;;2092459;28;1975;-50
2021/03/10 03:28:47;;;;;;;;;;;12.80;58.20;;;;;;2095438;28;1109;-50
2021/03/10 03:30:07;;;;;;;;;;;12.80;58.20;;;;;;2097691;28;1072;-50
2021/03/10 03:31:26;;;;;;;;;;;12.80;58.30;;;;;;2098588;28;1178;-49
2021/03/10 03:32:45;;;;;;;;;;;12.80;58.30;;;;;;2088967;28;1316;-50
2021/03/10 03:34:05;;;;;;;;;;;12.80;58.40;;;;;;2094219;28;1328;-52
2021/03/10 03:35:24;;;;;;;;;;;12.70;58.90;;;;;;2096370;28;1365;-51
2021/03/10 03:36:43;;;;;;;;;;;12.70;58.40;;;;;;2089985;28;2152;-50
2021/03/10 03:38:02;;;;;;;;;;;12.70;58.40;;;;;;2095824;28;1467;-50
2021/03/10 03:39:22;;;;;;;;;;;12.70;58.40;;;;;;2090076;28;1178;-50
2021/03/10 03:40:41;;;;;;;;;;;12.70;58.40;;;;;;2094478;28;1117;-50
2021/03/10 03:42:00;;;;;;;;;;;12.70;58.50;;;;;;2094478;28;1269;-49
2021/03/10 03:43:19;;;;;;;;;;;12.70;58.50;;;;;;2095440;28;1229;-49
2021/03/10 03:44:38;;;;;;;;;;;12.70;58.60;;;;;;2096135;28;1296;-52
2021/03/10 03:45:58;;;;;;;;;;;12.70;58.60;;;;;;2097892;28;1032;-51
2021/03/10 03:47:17;;;;;;;;;;;12.60;58.60;;;;;;2097018;28;1969;-50
2021/03/10 03:48:36;;;;;;;;;;;12.60;58.70;;;;;;2092419;28;1301;-50
2021/03/10 03:49:55;;;;;;;;;;;12.60;58.70;;;;;;2091532;28;1313;-50
2021/03/10 03:51:25;;;;;;;;;;;12.60;58.70;;;;;;2097232;28;1225;-50
2021/03/10 03:52:44;;;;;;;;;;;12.60;59.30;;;;;;2096457;28;1166;-52
2021/03/10 03:54:03;;;;;;;;;;;12.60;58.80;;;;;;2097365;28;1305;-59
2021/03/10 03:55:23;;;;;;;;;;;12.60;58.80;;;;;;2095597;28;1498;-55
2021/03/10 03:56:42;;;;;;;;;;;12.60;58.80;;;;;;2096108;28;1185;-51
2021/03/10 03:58:02;;;;;;;;;;;12.60;58.80;;;;;;2098001;28;1340;-50
2021/03/10 03:59:21;;;;;;;;;;;12.60;58.90;;;;;;2095238;28;1242;-48
2021/03/10 04:00:40;;;;;;;;;;;12.60;59.00;;;;;;2094562;28;1229;-48
2021/03/10 04:01:59;;;;;;;;;;;12.60;59.50;;;;;;2097105;28;1050;-48
2021/03/10 04:03:18;;;;;;;;;;;12.50;58.90;;;;;;2096838;28;1159;-48
2021/03/10 04:04:37;;;;;;;;;;;12.50;59.00;;;;;;2095958;28;1201;-47
2021/03/10 04:05:57;;;;;;;;;;;12.50;59.00;;;;;;2097277;28;1321;-48
2021/03/10 04:07:16;;;;;;;;;;;12.50;59.00;;;;;;2092625;28;1906;-49
2021/03/10 04:08:35;;;;;;;;;;;12.50;59.00;;;;;;2092773;28;1159;-49
2021/03/10 04:09:54;;;;;;;;;;;12.50;59.10;;;;;;2095714;28;2061;-50
2021/03/10 04:11:14;;;;;;;;;;;12.50;59.10;;;;;;2095663;28;1245;-49
2021/03/10 04:12:34;;;;;;;;;;;12.50;59.10;;;;;;2092298;28;1340;-49
2021/03/10 04:13:53;;;;;;;;;;;12.50;59.10;;;;;;2093810;28;1475;-48
2021/03/10 04:15:12;;;;;;;;;;;12.50;59.10;;;;;;2089442;28;1405;-49
2021/03/10 04:16:31;;;;;;;;;;;12.50;59.20;;;;;;2093124;28;1100;-50
2021/03/10 04:17:50;;;;;;;;;;;12.50;59.20;;;;;;2089527;28;1411;-48
2021/03/10 04:19:10;;;;;;;;;;;12.50;59.70;;;;;;2092916;28;1153;-50
2021/03/10 04:20:29;;;;;;;;;;;12.40;59.70;;;;;;2085294;28;1333;-49
2021/03/10 04:21:48;;;;;;;;;;;12.40;59.20;;;;;;2093068;28;1420;-50
2021/03/10 04:23:07;;;;;;;;;;;12.40;59.20;;;;;;2092025;28;1167;-50
2021/03/10 04:24:26;;;;;;;;;;;12.40;59.20;;;;;;2098135;28;1182;-50
2021/03/10 04:25:46;;;;;;;;;;;12.40;59.20;;;;;;2091407;28;1386;-50
2021/03/10 04:27:05;;;;;;;;;;;12.40;59.30;;;;;;2097688;28;1960;-48
2021/03/10 04:28:24;;;;;;;;;;;12.40;59.50;;;;;;2098036;28;1242;-51
2021/03/10 04:29:43;;;;;;;;;;;12.40;60.80;;;;;;2092075;28;1350;-47
2021/03/10 04:31:03;;;;;;;;;;;12.40;60.90;;;;;;2097804;28;1116;-49
2021/03/10 04:32:22;;;;;;;;;;;12.50;61.50;;;;;;2097765;28;1153;-50
2021/03/10 04:33:41;;;;;;;;;;;12.50;61.80;;;;;;2092393;28;1096;-50
2021/03/10 04:35:00;;;;;;;;;;;12.50;62.00;;;;;;2093320;28;1506;-50
2021/03/10 04:36:19;;;;;;;;;;;12.50;62.70;;;;;;2097357;28;1279;-50
2021/03/10 04:37:40;;;;;;;;;;;12.50;61.30;;;;;;2090644;28;1290;-50
2021/03/10 04:38:59;;;;;;;;;;;12.40;61.70;;;;;;2094387;28;1336;-50
2021/03/10 04:40:18;;;;;;;;;;;12.40;60.80;;;;;;2097246;28;892;-50
2021/03/10 04:41:37;;;;;;;;;;;12.40;60.80;;;;;;2088365;28;1296;-50
2021/03/10 04:42:57;;;;;;;;;;;12.40;60.90;;;;;;2097027;28;1428;-49
2021/03/10 04:44:16;;;;;;;;;;;12.40;60.90;;;;;;2097073;28;1103;-49
2021/03/10 04:45:35;;;;;;;;;;;12.40;60.90;;;;;;2089343;28;1365;-50
2021/03/10 04:46:55;;;;;;;;;;;12.40;60.90;;;;;;2097322;28;1898;-50
2021/03/10 04:48:14;;;;;;;;;;;12.40;60.90;;;;;;2094371;28;1272;-50
2021/03/10 04:49:33;;;;;;;;;;;12.50;60.80;;;;;;2097112;28;1308;-50
2021/03/10 04:50:52;;;;;;;;;;;12.50;60.60;;;;;;2093810;28;1241;-50
2021/03/10 04:52:12;;;;;;;;;;;12.50;60.30;;;;;;2091021;28;1331;-52
2021/03/10 04:53:30;;;;;;;;;;;12.60;60.10;;;;;;2097250;28;1214;-51
2021/03/10 04:54:50;;;;;;;;;;;12.60;60.60;;;;;;2093235;28;1393;-50
2021/03/10 04:56:09;;;;;;;;;;;12.60;60.30;;;;;;2097853;28;1229;-51
2021/03/10 04:57:28;;;;;;;;;;;12.70;59.60;;;;;;2091567;28;1975;-50
2021/03/10 04:58:47;;;;;;;;;;;12.70;59.40;;;;;;2095663;28;1419;-50
2021/03/10 05:00:07;;;;;;;;;;;12.70;59.30;;;;;;2094483;28;1332;-50
2021/03/10 05:01:27;;;;;;;;;;;12.70;59.20;;;;;;2096089;28;1242;-49
2021/03/10 05:02:46;;;;;;;;;;;12.70;59.10;;;;;;2096364;28;1382;-49
2021/03/10 05:04:05;;;;;;;;;;;12.70;59.10;;;;;;2087419;28;1493;-51
2021/03/10 05:05:24;;;;;;;;;;;12.70;59.00;;;;;;2088654;28;1388;-50
2021/03/10 05:06:43;;;;;;;;;;;12.70;59.10;;;;;;2089372;28;1976;-49
2021/03/10 05:08:03;;;;;;;;;;;12.70;59.00;;;;;;2084874;28;1534;-50
2021/03/10 05:09:22;;;;;;;;;;;12.70;59.10;;;;;;2089853;28;1246;-50
2021/03/10 05:10:42;;;;;;;;;;;12.60;59.00;;;;;;2087646;28;1346;-49
2021/03/10 05:12:01;;;;;;;;;;;12.60;59.50;;;;;;2088234;28;1223;-50
2021/03/10 05:13:20;;;;;;;;;;;12.60;59.00;;;;;;2088940;28;1235;-51
2021/03/10 05:14:39;;;;;;;;;;;12.60;59.60;;;;;;2085873;28;1060;-50
2021/03/10 05:15:59;;;;;;;;;;;12.60;59.10;;;;;;2084023;28;1580;-50
2021/03/10 05:17:18;;;;;;;;;;;12.60;59.10;;;;;;2088847;28;1191;-51
2021/03/10 05:18:37;;;;;;;;;;;12.60;59.20;;;;;;2088846;28;1259;-50
2021/03/10 05:19:56;;;;;;;;;;;12.60;59.20;;;;;;2088513;28;1552;-51
2021/03/10 05:21:15;;;;;;;;;;;12.60;59.20;;;;;;2088022;28;1423;-49
2021/03/10 05:22:35;;;;;;;;;;;12.60;59.20;;;;;;2085197;28;1317;-50
2021/03/10 05:23:54;;;;;;;;;;;12.60;59.30;;;;;;2088988;28;1059;-49
2021/03/10 05:25:14;;;;;;;;;;;12.60;59.30;;;;;;2089037;28;1433;-50
2021/03/10 05:26:32;;;;;;;;;;;12.50;59.20;;;;;;2087709;28;1918;-50
2021/03/10 05:27:52;;;;;;;;;;;12.50;59.20;;;;;;2082264;28;1864;-50
2021/03/10 05:29:11;;;;;;;;;;;12.50;59.30;;;;;;2091359;28;1191;-49
2021/03/10 05:30:30;;;;;;;;;;;12.50;59.30;;;;;;2088878;28;1243;-49
2021/03/10 05:31:50;;;;;;;;;;;12.50;59.30;;;;;;2090410;28;1266;-50
2021/03/10 05:33:09;;;;;;;;;;;12.50;59.30;;;;;;2089235;28;1186;-50
2021/03/10 05:34:28;;;;;;;;;;;12.50;59.90;;;;;;2090216;28;1196;-49
2021/03/10 05:35:47;;;;;;;;;;;12.50;59.40;;;;;;2089419;28;1409;-50
2021/03/10 05:37:07;;;;;;;;;;;12.50;59.40;;;;;;2090587;28;1355;-50
2021/03/10 05:38:26;;;;;;;;;;;12.50;59.40;;;;;;2090893;28;1149;-50
2021/03/10 05:39:45;;;;;;;;;;;12.50;59.40;;;;;;2093901;28;1103;-49
2021/03/10 05:41:04;;;;;;;;;;;12.50;59.50;;;;;;2090839;28;1216;-50
2021/03/10 05:42:23;;;;;;;;;;;12.50;59.50;;;;;;2089486;28;1383;-50
2021/03/10 05:43:43;;;;;;;;;;;12.50;59.70;;;;;;2088906;28;1178;-49
2021/03/10 05:45:02;;;;;;;;;;;12.50;60.70;;;;;;2088903;28;1420;-50
2021/03/10 05:46:21;;;;;;;;;;;12.50;60.90;;;;;;2082812;28;1089;-51
2021/03/10 05:47:40;;;;;;;;;;;12.50;61.00;;;;;;2089235;28;1430;-50
2021/03/10 05:48:59;;;;;;;;;;;12.50;61.30;;;;;;2090536;28;1193;-51
2021/03/10 05:50:19;;;;;;;;;;;12.50;61.50;;;;;;2089634;28;1309;-52
2021/03/10 05:51:38;;;;;;;;;;;12.50;60.40;;;;;;2089871;28;920;-50
2021/03/10 05:52:57;;;;;;;;;;;12.50;60.30;;;;;;2090275;28;1237;-50
2021/03/10 05:54:16;;;;;;;;;;;12.50;60.30;;;;;;2088077;28;1284;-50
2021/03/10 05:55:36;;;;;;;;;;;12.40;60.20;;;;;;2079000;28;1438;-49
2021/03/10 05:56:56;;;;;;;;;;;12.40;60.20;;;;;;2082933;28;1241;-51
2021/03/10 05:58:15;;;;;;;;;;;12.40;60.20;;;;;;2087657;28;1190;-49
2021/03/10 05:59:35;;;;;;;;;;;12.40;60.20;;;;;;2087607;28;1353;-49
2021/03/10 06:00:54;;;;;;;;;;;12.40;60.20;;;;;;2085247;28;1281;-50
2021/03/10 06:02:13;;;;;;;;;;;12.40;60.20;;;;;;2089663;28;1080;-49
2021/03/10 06:03:32;;;;;;;;;;;12.40;60.20;;;;;;2091310;28;1198;-50
2021/03/10 06:04:51;;;;;;;;;;;12.40;60.20;;;;;;2088846;28;1277;-48
2021/03/10 06:06:11;;;;;;;;;;;12.40;60.20;;;;;;2087882;28;1669;-50
2021/03/10 06:07:30;;;;;;;;;;;12.30;60.10;;;;;;2086864;28;1930;-48
2021/03/10 06:08:49;;;;;;;;;;;12.30;60.10;;;;;;2093234;28;1397;-48
2021/03/10 06:10:08;;;;;;;;;;;12.30;60.10;;;;;;2082198;28;1196;-48
2021/03/10 06:11:27;;;;;;;;;;;12.30;60.10;;;;;;2074031;28;1160;-48
2021/03/10 06:12:47;;;;;;;;;;;12.30;60.10;;;;;;2087155;28;1299;-49
2021/03/10 06:14:14;;;;;;;;;;;12.30;60.10;;;;;;2091137;28;1287;-49
2021/03/10 06:15:40;;;;;;;;;;;12.30;60.10;;;;;;2088501;28;1430;-50
2021/03/10 06:17:09;;;;;;;;;;;12.30;60.80;;;;;;2090589;28;1056;-50
2021/03/10 06:18:28;;;;;;;;;;;12.30;60.10;;;;;;2089786;28;1246;-50
2021/03/10 06:19:48;;;;;;;;;;;12.30;60.10;;;;;;2090021;28;1164;-50
2021/03/10 06:21:10;;;;;;;;;;;12.30;60.10;;;;;;2081315;28;1236;-50
2021/03/10 06:22:32;;;;;;;;;;;12.20;60.00;;;;;;2086192;28;1065;-49
2021/03/10 06:23:52;;;;;;;;;;;12.20;60.00;;;;;;2088651;28;1257;-49
2021/03/10 06:25:11;;;;;;;;;;;12.20;60.10;;;;;;2089636;28;1423;-49
2021/03/10 06:26:31;;;;;;;;;;;12.20;60.80;;;;;;2090253;28;885;-51
2021/03/10 06:27:54;;;;;;;;;;;12.20;60.10;;;;;;2088890;28;1069;-48
2021/03/10 06:29:14;;;;;;;;;;;12.20;60.20;;;;;;2088489;28;1112;-49
2021/03/10 06:30:40;;;;;;;;;;;12.20;60.20;;;;;;2090293;28;1262;-51
2021/03/10 06:32:06;;;;;;;;;;;12.20;60.20;;;;;;2085615;28;1145;-50
2021/03/10 06:33:25;;;;;;;;;;;12.20;60.20;;;;;;2090502;28;1314;-47
2021/03/10 06:34:45;;;;;;;;;;;12.20;60.30;;;;;;2092514;28;1125;-51
2021/03/10 06:36:05;;;;;;;;;;;12.20;60.20;;;;;;2085442;28;1350;-51
2021/03/10 06:37:27;;;;;;;;;;;12.20;60.20;;;;;;2090124;28;1372;-48
2021/03/10 06:38:51;;;;;;;;;;;12.20;61.00;;;;;;2092605;28;1226;-50
2021/03/10 06:40:13;;;;;;;;;;;12.20;60.20;;;;;;2089917;28;1246;-50
2021/03/10 06:41:33;;;;;;;;;;;12.20;60.20;;;;;;2088442;28;1401;-49
2021/03/10 06:42:52;;;;;;;;;;;12.10;60.10;;;;;;2092896;28;1395;-49
2021/03/10 06:44:17;;;;;;;;;;;12.10;60.10;;;;;;2089645;28;1310;-49
2021/03/10 06:45:37;;;;;;;;;;;12.10;60.80;;;;;;2088226;28;1496;-49
2021/03/10 06:46:57;;;;;;;;;;;12.10;60.20;;;;;;2091067;28;1983;-51
2021/03/10 06:48:16;;;;;;;;;;;12.10;60.20;;;;;;2090697;28;1035;-49
2021/03/10 06:49:35;;;;;;;;;;;12.10;60.20;;;;;;2088665;28;1292;-48
2021/03/10 06:50:55;;;;;;;;;;;12.10;60.20;;;;;;2089690;28;1409;-49
2021/03/10 06:52:14;;;;;;;;;;;12.10;60.30;;;;;;2092300;28;907;-47
2021/03/10 06:53:33;;;;;;;;;;;12.10;60.30;;;;;;2089192;28;1307;-49
2021/03/10 06:54:53;;;;;;;;;;;12.10;61.10;;;;;;2091425;28;1256;-49
2021/03/10 06:56:16;;;;;;;;;;;12.10;60.40;;;;;;2089989;28;1321;-48
2021/03/10 06:57:41;;;;;;;;;;;12.10;60.40;;;;;;2090841;28;1332;-49
2021/03/10 06:59:02;;;;;;;;;;;12.10;60.40;;;;;;2089135;28;1226;-51
2021/03/10 07:00:22;;;;;;;;;;;12.10;60.40;;;;;;2091022;28;1138;-51
2021/03/10 07:01:42;;;;;;;;;;;12.10;61.20;;;;;;2089183;28;1430;-50
2021/03/10 07:03:01;;;;;;;;;;;12.00;60.30;;;;;;2088101;28;1162;-50
2021/03/10 07:04:21;;;;;;;;;;;12.00;60.30;;;;;;2090394;28;884;-52
2021/03/10 07:05:40;;;;;;;;;;;12.00;60.40;;;;;;2090638;28;1405;-49
2021/03/10 07:07:00;;;;;;;;;;;12.00;60.40;;;;;;2089514;28;1902;-51
2021/03/10 07:08:19;;;;;;;;;;;12.00;60.40;;;;;;2091748;28;1125;-50
2021/03/10 07:09:38;;;;;;;;;;;12.00;60.40;;;;;;2091292;28;1336;-54
2021/03/10 07:10:57;;;;;;;;;;;12.00;60.40;;;;;;2085482;28;1169;-50
2021/03/10 07:12:17;;;;;;;;;;;12.00;60.50;;;;;;2086020;28;844;-50
2021/03/10 07:13:36;;;;;;;;;;;12.00;60.40;;;;;;2086294;28;1173;-50
2021/03/10 07:14:55;;;;;;;;;;;12.00;60.40;;;;;;2092209;28;1116;-51
2021/03/10 07:16:14;;;;;;;;;;;12.00;61.20;;;;;;2089482;28;1098;-51
2021/03/10 07:17:34;;;;;;;;;;;12.00;60.50;;;;;;2089946;28;1207;-50
2021/03/10 07:18:53;;;;;;;;;;;12.00;61.00;;;;;;2089921;28;1119;-50
2021/03/10 07:20:12;;;;;;;;;;;12.00;61.60;;;;;;2088657;28;1252;-51
2021/03/10 07:21:33;;;;;;;;;;;12.00;62.10;;;;;;2089643;28;1147;-50
2021/03/10 07:23:09;;;;;;;;;;;12.00;62.10;;;;;;2089657;28;1483;-50
2021/03/10 07:24:47;;;;;;;;;;;12.00;61.80;;;;;;2089548;28;1061;-50
2021/03/10 07:26:07;;;;;;;;;;;12.00;62.00;;;;;;2091412;28;1291;-50
2021/03/10 07:27:26;;;;;;;;;;;12.00;62.60;;;;;;2085807;28;1894;-49
2021/03/10 07:28:46;;;;;;;;;;;12.00;62.60;;;;;;2085725;28;1175;-50
2021/03/10 07:30:06;;;;;;;;;;;12.00;61.80;;;;;;2083356;28;1519;-51
2021/03/10 07:31:26;;;;;;;;;;;12.00;61.80;;;;;;2086554;28;1395;-50
2021/03/10 07:32:45;;;;;;;;;;;12.00;61.90;;;;;;2076716;28;1431;-50
2021/03/10 07:34:04;;;;;;;;;;;12.00;61.80;;;;;;2077897;28;1304;-50
2021/03/10 07:35:24;;;;;;;;;;;12.00;62.10;;;;;;2086026;28;1481;-49
2021/03/10 07:36:43;;;;;;;;;;;11.90;61.80;;;;;;2091359;28;1425;-48
2021/03/10 07:38:02;;;;;;;;;;;11.90;61.80;;;;;;2090734;28;1113;-48
2021/03/10 07:39:26;;;;;;;;;;;11.90;61.90;;;;;;2084674;28;1018;-48
2021/03/10 07:41:04;;;;;;;;;;;11.90;61.90;;;;;;2083986;28;1309;-49
2021/03/10 07:42:23;;;;;;;;;;;11.90;62.10;;;;;;2079853;28;1158;-48
2021/03/10 07:43:44;;;;;;;;;;;11.90;62.00;;;;;;2080084;28;1184;-49
2021/03/10 07:45:04;;;;;;;;;;;11.90;62.00;;;;;;2089192;28;1429;-48
2021/03/10 07:46:33;;;;;;;;;;;11.90;62.00;;;;;;2089180;28;1155;-47
2021/03/10 07:47:56;;;;;;;;;;;11.90;62.00;;;;;;2086861;28;1430;-47
2021/03/10 07:49:18;;;;;;;;;;;11.90;62.00;;;;;;2087849;28;1246;-48
2021/03/10 07:50:39;;;;;;;;;;;11.90;62.10;;;;;;2089840;28;1219;-48
2021/03/10 07:52:05;;;;;;;;;;;11.90;62.00;;;;;;2089092;28;1433;-49
2021/03/10 07:53:33;;;;;;;;;;;11.90;62.10;;;;;;2089834;28;1137;-48
2021/03/10 07:54:59;;;;;;;;;;;11.90;62.10;;;;;;2090539;28;1098;-50